Time;durP1;ratioP1;P1;durP2;ratioP2;P2;SDS_P1;SDS_P2;PMS_P1;PMS_P2;Temp;Humidity;BMP_temperature;BMP_pressure;BME280_temperature;BME280_humidity;BME280_pressure;Samples;Min_cycle;Max_cycle;Signal;HPM_P1;HPM_P2
2021/05/16 00:01:51;;;;;;;0.17;0.15;;;;;;;9.83;83.50;100081.59;4999348;28;20077;-72
2021/05/16 00:04:17;;;;;;;0.10;0.10;;;;;;;9.86;83.92;100081.31;4985564;28;20400;-73
2021/05/16 00:06:42;;;;;;;0.20;0.20;;;;;;;9.90;84.28;100085.34;4986432;28;20039;-72
2021/05/16 00:09:08;;;;;;;0.20;0.20;;;;;;;9.70;84.28;100048.06;4981915;28;20519;-72
2021/05/16 00:11:33;;;;;;;0.20;0.20;;;;;;;9.91;84.79;100074.78;4985752;28;20744;-72
2021/05/16 00:13:59;;;;;;;0.10;0.10;;;;;;;9.84;84.67;100065.84;4985499;28;20027;-72
2021/05/16 00:16:25;;;;;;;0.30;0.30;;;;;;;9.76;84.61;100052.72;4985920;28;20513;-72
2021/05/16 00:18:50;;;;;;;0.20;0.20;;;;;;;9.93;84.69;100072.06;4984979;28;20108;-72
2021/05/16 00:21:16;;;;;;;0.38;0.30;;;;;;;9.84;84.39;100062.44;4985799;28;20497;-72
2021/05/16 00:23:41;;;;;;;0.20;0.20;;;;;;;9.96;84.44;100072.59;5001202;28;20042;-72
2021/05/16 00:26:08;;;;;;;0.10;0.10;;;;;;;9.88;84.47;100066.44;4979126;28;20782;-72
2021/05/16 00:28:33;;;;;;;0.10;0.10;;;;;;;9.87;84.50;100063.00;4985158;28;20336;-71
2021/05/16 00:30:59;;;;;;;0.38;0.10;;;;;;;9.90;84.52;100061.94;4983289;28;20124;-72
2021/05/16 00:33:24;;;;;;;0.20;0.20;;;;;;;9.87;84.37;100059.56;4983597;28;20034;-72
2021/05/16 00:35:50;;;;;;;0.10;0.10;;;;;;;9.91;84.20;100069.59;4983138;28;20109;-71
2021/05/16 00:38:15;;;;;;;0.20;0.20;;;;;;;9.88;84.03;100054.25;4985954;28;20145;-72
2021/05/16 00:40:41;;;;;;;0.20;0.20;;;;;;;9.83;84.13;100046.00;4996047;28;20133;-72
2021/05/16 00:43:07;;;;;;;0.20;0.20;;;;;;;9.91;83.43;100069.59;4983479;28;20034;-72
2021/05/16 00:45:34;;;;;;;0.20;0.20;;;;;;;9.82;83.90;100059.97;4969006;28;20129;-72
2021/05/16 00:48:06;;;;;;;0.20;0.20;;;;;;;9.84;83.79;100055.47;5012626;28;20038;-72
2021/05/16 00:50:38;;;;;;;0.10;0.10;;;;;;;9.79;84.29;100057.66;4997299;28;20501;-72
2021/05/16 00:53:03;;;;;;;0.10;0.10;;;;;;;9.85;83.84;100056.28;4999201;28;20482;-72
2021/05/16 00:55:29;;;;;;;0.10;0.10;;;;;;;9.71;84.59;100044.50;4980799;28;20042;-72
2021/05/16 00:57:55;;;;;;;0.10;0.10;;;;;;;9.75;84.14;100052.84;4982311;28;20030;-71
2021/05/16 01:00:27;;;;;;;0.10;0.10;;;;;;;9.73;84.21;100055.59;4992474;28;20404;-72
2021/05/16 01:03:00;;;;;;;0.20;0.20;;;;;;;9.59;84.02;100035.16;4984390;28;20138;-72
2021/05/16 01:05:28;;;;;;;0.20;0.20;;;;;;;9.72;84.28;100055.72;4980036;28;20039;-72
2021/05/16 01:07:54;;;;;;;0.20;0.20;;;;;;;9.68;84.97;100052.53;4983995;28;20109;-71
2021/05/16 01:10:20;;;;;;;0.10;0.10;;;;;;;9.69;85.86;100054.19;4983583;28;20049;-73
2021/05/16 01:12:49;;;;;;;0.20;0.20;;;;;;;9.64;85.35;100040.75;4984516;28;20066;-72
2021/05/16 01:15:18;;;;;;;0.20;0.20;;;;;;;9.72;84.58;100042.72;4968131;28;20026;-72
2021/05/16 01:17:45;;;;;;;0.20;0.20;;;;;;;9.71;84.88;100039.31;4983813;28;21160;-72
2021/05/16 01:20:19;;;;;;;0.20;0.20;;;;;;;9.76;85.22;100036.28;4983506;28;20041;-71
2021/05/16 01:22:57;;;;;;;0.17;0.17;;;;;;;9.74;84.66;100026.03;4967724;28;20037;-73
2021/05/16 01:25:25;;;;;;;0.30;0.30;;;;;;;9.79;84.57;100039.44;5000488;28;20034;-72
2021/05/16 01:27:51;;;;;;;0.10;0.10;;;;;;;9.81;85.13;100044.50;4984815;28;20189;-72
2021/05/16 01:30:19;;;;;;;0.10;0.10;;;;;;;9.70;84.44;100035.06;4979220;28;20133;-71
2021/05/16 01:32:45;;;;;;;0.20;0.20;;;;;;;9.69;85.54;100036.84;4981804;28;20050;-71
2021/05/16 01:35:11;;;;;;;0.20;0.20;;;;;;;9.77;84.59;100043.97;4983716;28;20088;-73
2021/05/16 01:37:37;;;;;;;0.22;0.22;;;;;;;9.82;84.81;100056.56;4984033;28;20112;-72
2021/05/16 01:40:04;;;;;;;0.20;0.20;;;;;;;9.76;84.59;100037.13;4983113;28;20042;-72
2021/05/16 01:42:31;;;;;;;0.30;0.30;;;;;;;9.66;84.78;100029.28;4979695;28;20530;-72
2021/05/16 01:45:02;;;;;;;0.20;0.20;;;;;;;9.64;84.86;100033.78;4968486;28;20120;-72
2021/05/16 01:47:31;;;;;;;0.20;0.20;;;;;;;9.43;85.36;100006.22;4999711;28;20073;-71
2021/05/16 01:50:15;;;;;;;0.10;0.10;;;;;;;9.50;85.33;100025.53;4986393;28;20071;-71
2021/05/16 01:52:43;;;;;;;0.20;0.20;;;;;;;9.63;85.72;100054.72;4985648;28;20041;-72
2021/05/16 01:55:11;;;;;;;0.13;0.13;;;;;;;9.48;85.52;100033.47;4992713;28;20038;-71
2021/05/16 01:57:37;;;;;;;0.10;0.10;;;;;;;9.40;85.61;100017.72;4984023;28;20697;-72
2021/05/16 02:00:08;;;;;;;0.30;0.30;;;;;;;9.47;85.81;100025.78;4983340;28;20037;-72
2021/05/16 02:02:43;;;;;;;0.10;0.10;;;;;;;9.55;85.45;100047.59;4984910;28;20084;-72
2021/05/16 02:05:10;;;;;;;0.20;0.20;;;;;;;9.55;86.11;100044.16;4992757;28;20061;-72
2021/05/16 02:07:38;;;;;;;0.20;0.20;;;;;;;9.55;85.63;100041.56;4990274;28;20085;-71
2021/05/16 02:10:06;;;;;;;0.20;0.20;;;;;;;9.38;86.49;100025.66;4983321;28;20113;-71
2021/05/16 02:12:33;;;;;;;0.15;0.15;;;;;;;9.39;86.37;100018.66;4993406;28;20054;-72
2021/05/16 02:14:59;;;;;;;0.15;0.15;;;;;;;9.47;85.85;100029.22;4995057;28;20399;-72
2021/05/16 02:17:26;;;;;;;0.20;0.20;;;;;;;9.60;86.42;100042.81;4972120;28;20129;-72
2021/05/16 02:19:52;;;;;;;0.20;0.20;;;;;;;9.59;86.14;100046.38;4988719;28;20042;-72
2021/05/16 02:22:17;;;;;;;0.20;0.20;;;;;;;9.50;85.69;100034.16;4991070;28;20041;-72
2021/05/16 02:24:45;;;;;;;0.20;0.20;;;;;;;9.56;85.83;100040.63;4982448;28;20132;-72
2021/05/16 02:27:23;;;;;;;0.20;0.20;;;;;;;9.49;86.15;100034.28;4983076;28;20330;-71
2021/05/16 02:29:54;;;;;;;0.20;0.20;;;;;;;9.47;86.19;100025.78;4968954;28;20042;-72
2021/05/16 02:32:21;;;;;;;0.20;0.20;;;;;;;9.55;86.83;100044.16;4984976;28;20064;-72
2021/05/16 02:34:50;;;;;;;0.22;0.22;;;;;;;9.51;86.37;100032.38;4983716;28;20099;-71
2021/05/16 02:37:24;;;;;;;0.20;0.20;;;;;;;9.53;86.00;100041.72;4966244;28;20332;-72
2021/05/16 02:39:50;;;;;;;0.52;0.20;;;;;;;9.52;86.65;100040.06;4984624;28;20053;-72
2021/05/16 02:42:16;;;;;;;0.15;0.15;;;;;;;9.44;86.52;100032.09;4987591;28;20042;-71
2021/05/16 02:44:42;;;;;;;0.20;0.20;;;;;;;9.35;86.75;100017.28;5001300;28;20043;-72
2021/05/16 02:47:07;;;;;;;0.20;0.20;;;;;;;9.56;87.14;100045.81;4985547;28;20030;-71
2021/05/16 02:49:33;;;;;;;0.20;0.20;;;;;;;9.57;86.23;100042.25;4984372;28;20045;-72
2021/05/16 02:51:59;;;;;;;0.20;0.20;;;;;;;9.50;86.18;100028.94;4995563;28;20449;-72
2021/05/16 02:54:24;;;;;;;0.20;0.20;;;;;;;9.30;86.89;100004.66;4990683;28;20527;-71
2021/05/16 02:56:50;;;;;;;0.20;0.20;;;;;;;9.47;86.65;100020.59;4983645;28;20046;-72
2021/05/16 02:59:19;;;;;;;0.20;0.20;;;;;;;9.53;86.76;100026.13;4991461;28;20069;-71
2021/05/16 03:01:45;;;;;;;0.20;0.20;;;;;;;9.51;86.25;100029.78;4990672;28;20042;-72
2021/05/16 03:04:11;;;;;;;0.13;0.13;;;;;;;9.52;86.74;100039.25;4985974;28;20085;-71
2021/05/16 03:06:38;;;;;;;0.57;0.20;;;;;;;9.37;86.84;100015.38;4986941;28;20157;-72
2021/05/16 03:09:04;;;;;;;0.20;0.20;;;;;;;9.51;87.12;100032.38;4979260;28;20058;-72
2021/05/16 03:11:31;;;;;;;0.22;0.22;;;;;;;9.34;87.03;100003.47;4981179;28;20408;-72
2021/05/16 03:13:57;;;;;;;0.20;0.20;;;;;;;9.42;86.87;100022.78;4981072;28;20050;-71
2021/05/16 03:16:28;;;;;;;0.10;0.10;;;;;;;9.46;87.08;100021.56;4984265;28;20070;-72
2021/05/16 03:18:55;;;;;;;0.20;0.20;;;;;;;9.56;86.86;100038.84;4973880;28;20041;-71
2021/05/16 03:21:21;;;;;;;0.13;0.13;;;;;;;9.52;86.99;100029.66;4996886;28;20044;-72
2021/05/16 03:23:50;;;;;;;0.10;0.10;;;;;;;9.54;87.23;100032.94;4982912;28;20120;-71
2021/05/16 03:26:17;;;;;;;0.85;0.20;;;;;;;9.52;86.81;100018.44;4993803;28;20050;-71
2021/05/16 03:28:43;;;;;;;0.20;0.20;;;;;;;9.62;86.92;100038.31;4984251;28;20127;-71
2021/05/16 03:31:08;;;;;;;0.20;0.20;;;;;;;9.63;86.89;100034.75;4993634;28;20089;-72
2021/05/16 03:33:34;;;;;;;0.10;0.10;;;;;;;9.54;87.44;100013.94;4981142;28;20070;-71
2021/05/16 03:35:59;;;;;;;0.20;0.20;;;;;;;9.60;87.19;100024.63;4990847;28;20042;-72
2021/05/16 03:38:25;;;;;;;0.22;0.22;;;;;;;9.64;87.81;100025.16;4999187;28;20065;-71
2021/05/16 03:40:50;;;;;;;0.20;0.20;;;;;;;9.66;87.15;100028.44;4984525;28;20046;-72
2021/05/16 03:43:18;;;;;;;0.30;0.30;;;;;;;9.63;87.73;100028.72;4965012;28;20039;-71
2021/05/16 03:45:44;;;;;;;0.20;0.20;;;;;;;9.54;87.69;100012.16;4983614;28;20141;-71
2021/05/16 03:48:09;;;;;;;0.20;0.20;;;;;;;9.57;87.56;100016.25;4987692;28;20576;-71
2021/05/16 03:50:35;;;;;;;0.30;0.30;;;;;;;9.66;87.54;100028.44;4985609;28;20040;-71
2021/05/16 03:53:00;;;;;;;0.28;0.28;;;;;;;9.64;87.47;100022.56;4998040;28;20040;-71
2021/05/16 03:55:26;;;;;;;0.20;0.20;;;;;;;9.68;88.20;100029.97;4985720;28;20042;-71
2021/05/16 03:57:51;;;;;;;0.20;0.20;;;;;;;9.65;87.08;100032.84;4983576;28;20038;-71
2021/05/16 04:00:18;;;;;;;0.55;0.30;;;;;;;9.62;87.68;100027.06;4986490;28;20496;-71
2021/05/16 04:02:45;;;;;;;0.25;0.25;;;;;;;9.64;87.91;100028.59;4985176;28;20477;-72
2021/05/16 04:05:13;;;;;;;0.30;0.30;;;;;;;9.64;87.89;100031.19;4988571;28;20473;-71
2021/05/16 04:07:38;;;;;;;0.22;0.22;;;;;;;9.60;87.42;100027.22;4969628;28;20034;-72
2021/05/16 04:10:06;;;;;;;0.20;0.20;;;;;;;9.59;87.65;100027.34;4986621;28;20045;-71
2021/05/16 04:12:31;;;;;;;0.20;0.20;;;;;;;9.63;87.90;100034.75;4987200;28;20065;-72
2021/05/16 04:14:57;;;;;;;0.20;0.20;;;;;;;9.66;88.04;100039.69;4986786;28;20070;-72
2021/05/16 04:17:22;;;;;;;0.20;0.20;;;;;;;9.30;87.26;99977.88;4985468;28;20124;-71
2021/05/16 04:19:48;;;;;;;0.30;0.30;;;;;;;9.73;87.49;100036.56;4986446;28;20034;-71
2021/05/16 04:22:14;;;;;;;0.20;0.20;;;;;;;9.72;87.46;100038.34;5001005;28;20542;-72
2021/05/16 04:24:39;;;;;;;0.28;0.28;;;;;;;9.69;87.28;100028.19;4985149;28;20369;-71
2021/05/16 04:27:05;;;;;;;0.20;0.20;;;;;;;9.65;87.79;100032.00;4988010;28;20064;-71
2021/05/16 04:29:30;;;;;;;0.20;0.20;;;;;;;9.62;87.71;100024.47;4987755;28;20503;-72
2021/05/16 04:31:56;;;;;;;0.20;0.20;;;;;;;9.65;86.91;100024.22;4986318;28;20045;-71
2021/05/16 04:34:21;;;;;;;0.30;0.30;;;;;;;9.63;87.30;100026.13;4984979;28;20042;-70
2021/05/16 04:36:47;;;;;;;0.30;0.30;;;;;;;9.61;87.60;100020.25;4986942;28;20041;-69
2021/05/16 04:39:13;;;;;;;0.20;0.20;;;;;;;9.69;87.36;100029.03;4986004;28;20034;-70
2021/05/16 04:41:38;;;;;;;0.30;0.30;;;;;;;9.75;87.18;100043.28;4985840;28;20046;-70
2021/05/16 04:44:04;;;;;;;0.30;0.30;;;;;;;9.73;86.68;100041.75;4986793;28;20038;-69
2021/05/16 04:46:30;;;;;;;0.35;0.35;;;;;;;9.75;86.65;100039.84;4985946;28;20038;-69
2021/05/16 04:48:55;;;;;;;0.20;0.20;;;;;;;9.65;86.36;100040.63;4986222;28;20034;-70
2021/05/16 04:51:21;;;;;;;0.30;0.30;;;;;;;9.44;86.36;100019.09;4986491;28;20570;-69
2021/05/16 04:53:47;;;;;;;0.30;0.30;;;;;;;9.36;86.61;100027.56;4970636;28;20562;-69
2021/05/16 04:56:12;;;;;;;0.20;0.20;;;;;;;9.50;86.62;100047.13;4991222;28;20038;-69
2021/05/16 04:58:38;;;;;;;0.38;0.38;;;;;;;9.37;86.54;100041.38;4985220;28;20519;-69
2021/05/16 05:01:05;;;;;;;0.30;0.30;;;;;;;9.29;86.39;100031.59;4986754;28;20388;-69
2021/05/16 05:03:31;;;;;;;0.40;0.40;;;;;;;9.36;86.52;100043.16;4985901;28;20085;-71
2021/05/16 05:05:57;;;;;;;0.20;0.20;;;;;;;9.41;86.44;100052.31;4987258;28;20030;-69
2021/05/16 05:08:24;;;;;;;0.30;0.20;;;;;;;9.52;86.13;100057.44;5001429;28;20037;-70
2021/05/16 05:10:50;;;;;;;0.40;0.30;;;;;;;9.44;85.90;100045.06;4991627;28;20053;-69
2021/05/16 05:13:15;;;;;;;0.30;0.30;;;;;;;9.53;86.27;100046.91;4986702;28;20042;-69
2021/05/16 05:15:41;;;;;;;0.30;0.30;;;;;;;9.59;86.26;100048.16;4985824;28;20034;-70
2021/05/16 05:18:07;;;;;;;0.20;0.20;;;;;;;9.47;86.26;100031.81;4997896;28;20061;-70
2021/05/16 05:20:33;;;;;;;0.30;0.30;;;;;;;9.58;85.98;100052.53;4992874;28;20046;-69
2021/05/16 05:23:00;;;;;;;0.30;0.30;;;;;;;9.39;86.02;100027.28;4984195;28;20061;-69
2021/05/16 05:25:26;;;;;;;0.38;0.38;;;;;;;9.58;86.06;100049.91;5000100;28;20631;-69
2021/05/16 05:27:54;;;;;;;0.40;0.40;;;;;;;9.61;86.50;100056.63;4969011;28;20081;-69
2021/05/16 05:30:20;;;;;;;0.35;0.35;;;;;;;9.57;86.47;100047.47;4984715;28;20047;-69
2021/05/16 05:32:46;;;;;;;0.40;0.40;;;;;;;9.59;86.74;100045.53;5001515;28;20045;-70
2021/05/16 05:35:11;;;;;;;0.40;0.40;;;;;;;9.62;86.33;100050.47;4986311;28;20460;-69
2021/05/16 05:37:37;;;;;;;0.38;0.38;;;;;;;9.53;86.45;100035.69;4985407;28;20077;-70
2021/05/16 05:40:03;;;;;;;0.30;0.30;;;;;;;9.53;86.57;100039.09;4985666;28;20397;-70
2021/05/16 05:42:29;;;;;;;0.35;0.35;;;;;;;9.62;86.91;100053.91;4985534;28;20431;-69
2021/05/16 05:44:55;;;;;;;0.30;0.30;;;;;;;9.55;86.59;100049.38;4970025;28;20048;-70
2021/05/16 05:47:20;;;;;;;0.38;0.38;;;;;;;9.53;87.54;100041.72;5000044;28;20117;-69
2021/05/16 05:49:46;;;;;;;0.40;0.40;;;;;;;9.63;86.80;100055.53;4995198;28;20412;-69
2021/05/16 05:52:11;;;;;;;0.40;0.40;;;;;;;9.67;86.81;100058.69;4984408;28;20050;-69
2021/05/16 05:54:37;;;;;;;0.43;0.43;;;;;;;9.67;87.12;100053.50;4998405;28;20038;-69
2021/05/16 05:57:04;;;;;;;0.40;0.40;;;;;;;9.66;86.87;100049.25;4984119;28;20053;-69
2021/05/16 05:59:31;;;;;;;0.47;0.47;;;;;;;9.61;87.21;100038.44;5000773;28;20368;-70
2021/05/16 06:02:01;;;;;;;0.40;0.40;;;;;;;9.43;87.65;100006.22;4968626;28;20034;-69
2021/05/16 06:04:26;;;;;;;0.50;0.50;;;;;;;9.75;86.85;100056.28;4994367;28;20096;-70
2021/05/16 06:06:52;;;;;;;0.40;0.40;;;;;;;9.74;87.29;100041.63;4984671;28;20042;-69
2021/05/16 06:09:18;;;;;;;0.40;0.40;;;;;;;9.74;86.97;100027.81;5000925;28;20030;-69
2021/05/16 06:11:43;;;;;;;0.65;0.45;;;;;;;9.90;87.07;100048.91;4984330;28;20667;-69
2021/05/16 06:14:09;;;;;;;0.40;0.40;;;;;;;9.97;86.75;100047.41;4985567;28;20038;-70
2021/05/16 06:16:34;;;;;;;0.32;0.32;;;;;;;10.04;86.60;100056.31;4985956;28;20030;-69
2021/05/16 06:19:00;;;;;;;0.40;0.40;;;;;;;10.10;86.85;100058.41;4984947;28;20065;-68
2021/05/16 06:21:27;;;;;;;0.50;0.50;;;;;;;10.12;86.52;100046.06;4992752;28;20117;-69
2021/05/16 06:24:09;;;;;;;0.40;0.40;;;;;;;10.11;86.46;100034.03;4984487;28;20192;-68
2021/05/16 06:26:40;;;;;;;0.30;0.30;;;;;;;10.23;86.19;100047.75;4982834;28;20057;-69
2021/05/16 06:29:07;;;;;;;0.30;0.30;;;;;;;10.37;86.37;100056.94;4983218;28;20042;-69
2021/05/16 06:31:32;;;;;;;0.30;0.30;;;;;;;10.46;86.73;100059.56;4984575;28;20401;-69
2021/05/16 06:33:58;;;;;;;0.30;0.30;;;;;;;10.31;86.55;100034.06;4984228;28;20038;-69
2021/05/16 06:36:24;;;;;;;0.35;0.35;;;;;;;10.46;87.15;100051.75;4993439;28;20034;-69
2021/05/16 06:38:50;;;;;;;0.25;0.25;;;;;;;10.53;86.15;100065.84;4982830;28;20034;-69
2021/05/16 06:41:16;;;;;;;0.30;0.30;;;;;;;10.50;86.49;100047.06;4994055;28;20506;-70
2021/05/16 06:43:42;;;;;;;0.35;0.35;;;;;;;10.53;86.25;100044.19;4984341;28;20030;-69
2021/05/16 06:46:08;;;;;;;0.30;0.30;;;;;;;10.65;86.02;100055.28;4983762;28;20038;-70
2021/05/16 06:48:34;;;;;;;0.40;0.32;;;;;;;10.72;85.83;100065.00;4984846;28;20145;-69
2021/05/16 06:51:01;;;;;;;0.32;0.32;;;;;;;10.81;86.28;100058.97;4983933;28;20038;-69
2021/05/16 06:53:26;;;;;;;0.30;0.30;;;;;;;10.95;87.03;100062.09;4982667;28;20026;-70
2021/05/16 06:55:52;;;;;;;0.30;0.30;;;;;;;11.00;85.73;100052.91;4984677;28;20409;-69
2021/05/16 06:58:17;;;;;;;0.30;0.30;;;;;;;11.13;86.37;100065.63;4999689;28;20168;-70
2021/05/16 07:00:43;;;;;;;0.30;0.30;;;;;;;11.06;85.49;100044.53;4984708;28;20500;-69
2021/05/16 07:03:08;;;;;;;0.20;0.20;;;;;;;10.56;84.69;99956.22;4981453;28;20101;-70
2021/05/16 07:05:34;;;;;;;0.30;0.30;;;;;;;11.23;84.31;100063.81;4983444;28;20030;-69
2021/05/16 07:07:59;;;;;;;0.30;0.30;;;;;;;11.11;83.29;100042.31;4982374;28;20459;-69
2021/05/16 07:10:25;;;;;;;0.22;0.22;;;;;;;11.24;84.18;100060.25;4950559;28;20170;-70
2021/05/16 07:12:51;;;;;;;0.20;0.20;;;;;;;11.24;84.10;100039.38;4985001;28;20445;-70
2021/05/16 07:15:17;;;;;;;0.20;0.20;;;;;;;11.25;82.01;100056.66;4985408;28;20500;-69
2021/05/16 07:17:43;;;;;;;0.28;0.28;;;;;;;11.30;82.70;100062.28;4981396;28;20046;-70
2021/05/16 07:20:09;;;;;;;0.30;0.30;;;;;;;11.24;83.01;100051.59;4981531;28;20417;-70
2021/05/16 07:22:35;;;;;;;0.20;0.20;;;;;;;10.61;82.76;99921.16;4985707;28;20038;-70
2021/05/16 07:25:00;;;;;;;0.32;0.32;;;;;;;11.57;82.52;100068.50;4986474;28;20038;-70
2021/05/16 07:27:26;;;;;;;0.43;0.40;;;;;;;11.71;83.75;100068.84;4983066;28;20047;-70
2021/05/16 07:29:51;;;;;;;0.40;0.40;;;;;;;11.72;82.64;100043.59;4985816;28;20515;-69
2021/05/16 07:32:17;;;;;;;0.30;0.30;;;;;;;11.94;82.26;100056.25;4985826;28;20548;-69
2021/05/16 07:34:43;;;;;;;0.40;0.40;;;;;;;11.95;80.83;100041.41;4985451;28;20620;-69
2021/05/16 07:37:08;;;;;;;0.40;0.40;;;;;;;12.03;80.33;100057.16;4986400;28;20038;-70
2021/05/16 07:39:35;;;;;;;0.32;0.32;;;;;;;11.95;80.15;100057.06;4986728;28;20377;-69
2021/05/16 07:42:00;;;;;;;0.20;0.20;;;;;;;11.79;79.58;100045.47;4986268;28;20038;-70
2021/05/16 07:44:26;;;;;;;0.30;0.30;;;;;;;11.69;79.19;100055.13;4985808;28;20555;-69
2021/05/16 07:46:51;;;;;;;0.20;0.20;;;;;;;11.62;80.30;100058.44;4983662;28;20037;-70
2021/05/16 07:49:17;;;;;;;0.30;0.30;;;;;;;11.37;81.12;100042.50;4970460;28;20039;-69
2021/05/16 07:51:43;;;;;;;0.35;0.30;;;;;;;11.40;81.56;100063.06;4986756;28;20042;-70
2021/05/16 07:54:09;;;;;;;0.30;0.30;;;;;;;11.35;81.27;100064.47;4986532;28;20809;-70
2021/05/16 07:56:34;;;;;;;0.20;0.20;;;;;;;11.17;81.58;100051.38;4985543;28;20247;-70
2021/05/16 07:59:00;;;;;;;0.35;0.35;;;;;;;11.09;82.05;100046.03;4981801;28;20040;-70
2021/05/16 08:01:25;;;;;;;0.20;0.20;;;;;;;11.24;82.41;100067.25;4987506;28;20078;-70
2021/05/16 08:03:51;;;;;;;0.30;0.30;;;;;;;11.24;82.43;100060.25;4985042;28;20492;-69
2021/05/16 08:06:16;;;;;;;0.30;0.30;;;;;;;11.36;83.24;100066.13;4969631;28;20089;-70
2021/05/16 08:08:42;;;;;;;0.22;0.22;;;;;;;11.51;82.04;100072.50;4984417;28;20423;-70
2021/05/16 08:11:08;;;;;;;0.20;0.20;;;;;;;11.58;82.57;100059.72;4985360;28;20707;-70
2021/05/16 08:13:33;;;;;;;0.20;0.20;;;;;;;11.48;82.34;100055.34;4990708;28;20046;-70
2021/05/16 08:15:59;;;;;;;0.30;0.30;;;;;;;11.53;83.45;100067.16;4998761;28;20080;-70
2021/05/16 08:18:25;;;;;;;0.30;0.30;;;;;;;11.35;82.20;100054.88;4993860;28;20042;-70
2021/05/16 08:20:51;;;;;;;0.40;0.40;;;;;;;11.20;83.47;100058.88;4984178;28;20388;-70
2021/05/16 08:23:16;;;;;;;0.40;0.40;;;;;;;11.17;83.28;100067.00;4985930;28;20038;-70
2021/05/16 08:25:42;;;;;;;0.52;0.20;;;;;;;11.05;83.82;100061.13;4985510;28;20488;-70
2021/05/16 08:28:09;;;;;;;0.20;0.20;;;;;;;11.13;84.92;100063.00;4985883;28;20061;-70
2021/05/16 08:30:35;;;;;;;0.80;0.35;;;;;;;11.39;84.05;100066.66;4982258;28;20043;-70
2021/05/16 08:33:00;;;;;;;0.30;0.30;;;;;;;11.54;84.03;100058.34;4982735;28;20500;-69
2021/05/16 08:35:26;;;;;;;0.30;0.30;;;;;;;11.61;83.81;100051.59;4967384;28;20076;-70
2021/05/16 08:37:52;;;;;;;0.28;0.28;;;;;;;11.82;82.25;100065.22;4983322;28;20038;-70
2021/05/16 08:40:17;;;;;;;0.40;0.40;;;;;;;11.94;84.38;100063.25;4984247;28;20439;-70
2021/05/16 08:42:44;;;;;;;0.25;0.25;;;;;;;12.06;80.63;100047.25;4984252;28;20037;-70
2021/05/16 08:45:12;;;;;;;0.30;0.30;;;;;;;12.05;76.81;100047.41;4980856;28;20404;-70
2021/05/16 08:47:40;;;;;;;0.30;0.30;;;;;;;12.19;79.78;100049.47;4984796;28;20800;-70
2021/05/16 08:50:08;;;;;;;0.20;0.20;;;;;;;12.30;77.95;100054.50;4987034;28;20539;-70
2021/05/16 08:52:34;;;;;;;0.13;0.13;;;;;;;12.07;78.96;100035.03;4987844;28;20438;-70
2021/05/16 08:54:59;;;;;;;0.20;0.20;;;;;;;11.89;72.75;100048.03;4996993;28;20061;-69
2021/05/16 08:57:25;;;;;;;0.30;0.30;;;;;;;11.88;75.47;100056.03;5001956;28;20404;-70
2021/05/16 09:00:24;;;;;;;0.10;0.10;;;;;;;11.69;73.79;100068.16;4987385;28;20439;-68
2021/05/16 09:03:10;;;;;;;0.20;0.20;;;;;;;11.56;76.54;100082.50;4996268;28;20393;-70
2021/05/16 09:05:44;;;;;;;0.20;0.20;;;;;;;11.38;76.66;100072.81;4990552;28;20137;-70
2021/05/16 09:08:16;;;;;;;0.20;0.20;;;;;;;11.10;79.11;100084.13;4978330;28;20038;-70
2021/05/16 09:10:52;;;;;;;0.55;0.20;;;;;;;10.86;80.86;100077.59;4999134;28;20045;-70
2021/05/16 09:13:27;;;;;;;0.30;0.30;;;;;;;10.64;81.49;100064.06;4979381;28;20038;-70
2021/05/16 09:16:02;;;;;;;0.13;0.13;;;;;;;10.75;82.16;100076.94;4974878;28;20057;-70
2021/05/16 09:18:44;;;;;;;0.20;0.20;;;;;;;10.48;83.51;100064.63;4977666;28;20363;-71
2021/05/16 09:21:31;;;;;;;0.28;0.28;;;;;;;10.53;83.54;100085.84;4978434;28;20058;-69
2021/05/16 09:23:59;;;;;;;0.20;0.20;;;;;;;10.52;83.54;100079.81;4978897;28;20042;-70
2021/05/16 09:26:28;;;;;;;0.20;0.20;;;;;;;10.57;83.55;100077.63;4980019;28;20026;-69
2021/05/16 09:28:55;;;;;;;0.20;0.20;;;;;;;10.44;82.77;100071.88;4964193;28;20050;-70
2021/05/16 09:31:34;;;;;;;0.10;0.10;;;;;;;10.41;84.09;100072.16;4972248;28;20046;-70
2021/05/16 09:34:04;;;;;;;0.20;0.20;;;;;;;10.57;83.54;100085.44;4978850;28;20031;-70
2021/05/16 09:36:34;;;;;;;0.20;0.20;;;;;;;10.62;83.64;100058.19;4977419;28;20055;-69
2021/05/16 09:39:19;;;;;;;0.28;0.28;;;;;;;11.09;83.36;100085.09;4965797;28;20157;-69
2021/05/16 09:42:13;;;;;;;0.20;0.20;;;;;;;11.24;83.87;100085.47;4979094;28;20576;-70
2021/05/16 09:44:50;;;;;;;0.20;0.20;;;;;;;11.17;82.26;100080.84;4994020;28;20360;-69
2021/05/16 09:47:27;;;;;;;0.22;0.22;;;;;;;11.10;83.18;100066.72;4977676;28;20096;-70
2021/05/16 09:49:58;;;;;;;0.30;0.30;;;;;;;11.14;83.39;100065.50;4978913;28;20038;-69
2021/05/16 09:52:28;;;;;;;0.20;0.20;;;;;;;11.15;83.59;100077.56;4978889;28;20045;-70
2021/05/16 09:55:11;;;;;;;0.30;0.30;;;;;;;11.31;83.80;100083.94;4977537;28;20042;-69
2021/05/16 09:57:37;;;;;;;0.30;0.30;;;;;;;11.45;81.71;100086.91;4980127;28;20484;-69
2021/05/16 10:00:05;;;;;;;0.20;0.20;;;;;;;11.61;83.67;100083.69;4980030;28;20068;-70
2021/05/16 10:02:33;;;;;;;0.30;0.30;;;;;;;11.55;80.14;100065.22;4981047;28;20034;-70
2021/05/16 10:05:01;;;;;;;0.20;0.20;;;;;;;11.90;81.28;100078.38;4978409;28;20045;-70
2021/05/16 10:07:28;;;;;;;0.40;0.40;;;;;;;12.34;82.18;100062.84;4993026;28;20128;-70
2021/05/16 10:09:55;;;;;;;0.30;0.30;;;;;;;12.87;79.65;100057.56;4963610;28;20506;-70
2021/05/16 10:12:22;;;;;;;0.30;0.30;;;;;;;13.14;78.31;100066.25;4978586;28;20396;-69
2021/05/16 10:15:11;;;;;;;0.20;0.20;;;;;;;12.99;76.19;100069.41;4978416;28;20046;-70
2021/05/16 10:17:39;;;;;;;0.20;0.20;;;;;;;12.74;76.73;100038.03;4973830;28;20069;-70
2021/05/16 10:20:13;;;;;;;0.20;0.20;;;;;;;13.43;75.70;100068.53;4993418;28;20467;-70
2021/05/16 10:22:39;;;;;;;;;;;;;;;13.64;75.64;100068.97;4995890;28;20466;-70
2021/05/16 10:25:07;;;;;;;0.20;0.20;;;;;;;13.87;73.82;100061.38;4977801;28;19932;-70
2021/05/16 10:27:43;;;;;;;0.30;0.30;;;;;;;13.77;72.77;100058.88;4976522;28;20388;-70
2021/05/16 10:30:12;;;;;;;0.20;0.20;;;;;;;13.48;72.51;100061.06;4994661;28;20374;-68
2021/05/16 10:32:46;;;;;;;0.20;0.20;;;;;;;13.25;72.74;100060.78;4974981;28;20129;-69
2021/05/16 10:35:13;;;;;;;0.28;0.28;;;;;;;12.94;72.20;100071.69;4978486;28;20038;-69
2021/05/16 10:37:43;;;;;;;0.22;0.22;;;;;;;12.90;72.64;100067.72;4980187;28;20405;-68
2021/05/16 10:40:12;;;;;;;0.20;0.20;;;;;;;12.80;73.43;100076.63;4977137;28;20161;-68
2021/05/16 10:42:43;;;;;;;0.10;0.10;;;;;;;12.60;72.48;100049.88;4973909;28;20038;-69
2021/05/16 10:45:16;;;;;;;0.20;0.20;;;;;;;12.84;73.65;100063.09;4980197;28;20293;-69
2021/05/16 10:47:42;;;;;;;0.10;0.10;;;;;;;13.28;72.11;100068.31;4977695;28;20042;-68
2021/05/16 10:50:09;;;;;;;0.13;0.13;;;;;;;13.26;72.18;100057.19;4982716;28;20554;-68
2021/05/16 10:52:38;;;;;;;0.38;0.20;;;;;;;13.07;71.42;100047.72;4973496;28;20049;-68
2021/05/16 10:55:06;;;;;;;0.20;0.20;;;;;;;13.02;72.07;100073.50;4978052;28;20109;-68
2021/05/16 10:57:41;;;;;;;0.15;0.15;;;;;;;12.88;69.58;100077.50;4976685;28;20053;-69
2021/05/16 11:00:40;;;;;;;0.13;0.13;;;;;;;12.43;71.36;100069.78;4978705;28;20034;-69
2021/05/16 11:03:13;;;;;;;0.20;0.20;;;;;;;12.45;73.73;100088.75;4991595;28;20681;-69
2021/05/16 11:05:48;;;;;;;0.10;0.10;;;;;;;12.31;73.87;100092.69;4978071;28;20038;-69
2021/05/16 11:08:16;;;;;;;0.10;0.10;;;;;;;12.34;75.49;100091.56;4979049;28;20049;-69
2021/05/16 11:10:47;;;;;;;0.20;0.20;;;;;;;12.37;75.57;100088.66;4982796;28;20026;-70
2021/05/16 11:13:21;;;;;;;0.15;0.15;;;;;;;12.33;75.81;100080.28;4979191;28;20034;-68
2021/05/16 11:15:50;;;;;;;;;;;;;;;12.47;75.44;100096.41;4975877;28;20460;-69
2021/05/16 11:18:20;;;;;;;0.20;0.20;;;;;;;12.37;74.50;100096.47;4995226;28;19922;-69
2021/05/16 11:20:55;;;;;;;0.10;0.10;;;;;;;12.25;77.36;100088.06;4980841;28;20538;-70
2021/05/16 11:23:31;;;;;;;0.10;0.10;;;;;;;12.45;78.11;100103.59;4978598;28;20461;-70
2021/05/16 11:25:57;;;;;;;0.25;0.25;;;;;;;12.45;78.08;100109.63;4981943;28;20066;-70
2021/05/16 11:28:24;;;;;;;0.20;0.20;;;;;;;12.77;74.97;100101.28;4991123;28;20070;-70
2021/05/16 11:30:51;;;;;;;0.30;0.30;;;;;;;12.88;76.94;100103.63;4980054;28;20041;-69
2021/05/16 11:33:31;;;;;;;0.20;0.20;;;;;;;12.62;77.16;100094.94;4978275;28;20026;-70